createdAt,value
2022-08-02T00:02:28.726Z,0.44
2022-08-02T00:07:40.693Z,0.58
2022-08-02T00:12:42.409Z,0.49
2022-08-02T00:17:49.511Z,0.54
2022-08-02T00:22:56.471Z,0.61
2022-08-02T00:28:03.620Z,0.48
2022-08-02T00:33:10.575Z,0.45
2022-08-02T00:38:17.702Z,0.53
2022-08-02T00:43:24.611Z,0.57
2022-08-02T00:48:31.612Z,0.53
2022-08-02T00:53:38.260Z,0.54
2022-08-02T00:58:45.462Z,0.55
2022-08-02T01:03:52.424Z,0.55
2022-08-02T01:08:59.600Z,0.47
2022-08-02T01:14:06.548Z,0.51
2022-08-02T01:19:16.023Z,0.48
2022-08-02T01:24:20.145Z,0.63
2022-08-02T01:29:27.106Z,0.59
2022-08-02T01:34:34.320Z,0.54
2022-08-02T01:39:41.265Z,0.59
2022-08-02T01:44:48.257Z,0.56
2022-08-02T01:49:55.173Z,0.52
2022-08-02T01:55:02.182Z,0.65
2022-08-02T02:00:09.123Z,0.60
2022-08-02T02:05:16.291Z,0.65
2022-08-02T02:10:23.212Z,0.66
2022-08-02T02:15:30.212Z,0.60
2022-08-02T02:20:37.177Z,0.61
2022-08-02T02:25:46.577Z,0.67
2022-08-02T02:30:50.727Z,0.50
2022-08-02T02:35:57.744Z,0.61
2022-08-02T02:41:04.724Z,0.63
2022-08-02T02:46:11.757Z,0.68
2022-08-02T02:51:18.762Z,0.63
2022-08-02T02:56:25.841Z,0.61
2022-08-02T03:01:55.884Z,0.63
2022-08-02T03:06:39.387Z,0.72
2022-08-02T03:11:46.429Z,0.70
2022-08-02T03:16:53.518Z,0.65
2022-08-02T03:22:00.419Z,0.69
2022-08-02T03:27:07.521Z,0.80
2022-08-02T03:32:14.668Z,0.61
2022-08-02T03:37:21.460Z,0.85
2022-08-02T03:42:28.401Z,0.68
2022-08-02T03:47:35.492Z,0.75
2022-08-02T03:52:42.423Z,0.74
2022-08-02T03:57:49.490Z,0.82
2022-08-02T04:02:56.450Z,0.69
2022-08-02T04:08:35.708Z,0.76
2022-08-02T04:13:10.040Z,0.87
2022-08-02T04:18:17.333Z,0.65
2022-08-02T04:23:24.269Z,0.85
2022-08-02T04:28:30.788Z,0.79
2022-08-02T04:33:37.754Z,0.78
2022-08-02T04:38:44.870Z,0.76
2022-08-02T04:43:51.821Z,0.65
2022-08-02T04:48:58.832Z,0.68
2022-08-02T04:54:09.935Z,0.74
2022-08-02T04:59:12.332Z,0.87
2022-08-02T05:04:19.238Z,0.93
2022-08-02T05:09:26.182Z,0.95
2022-08-02T05:14:33.119Z,1.26
2022-08-02T05:19:40.134Z,0.95
2022-08-02T05:24:46.597Z,0.80
2022-08-02T05:29:53.938Z,0.72
2022-08-02T05:35:00.645Z,0.67
2022-08-02T05:40:12.553Z,0.58
2022-08-02T05:45:14.226Z,0.63
2022-08-02T05:50:21.347Z,0.67
2022-08-02T05:55:27.798Z,0.60
2022-08-02T06:00:34.965Z,0.58
2022-08-02T06:05:41.963Z,0.71
2022-08-02T06:10:49.194Z,0.54
2022-08-02T06:15:56.374Z,0.75
2022-08-02T06:22:31.969Z,0.59
2022-08-02T06:26:10.229Z,0.61
2022-08-02T06:31:17.219Z,0.61
2022-08-02T06:36:24.377Z,0.67
2022-08-02T06:41:31.334Z,0.66
2022-08-02T06:47:11.112Z,0.57
2022-08-02T06:51:44.932Z,0.70
2022-08-02T06:56:52.067Z,0.58
2022-08-02T07:01:59.092Z,0.64
2022-08-02T07:07:06.146Z,0.54
2022-08-02T07:12:13.468Z,0.65
2022-08-02T07:17:19.669Z,0.63
2022-08-02T07:22:26.680Z,0.56
2022-08-02T07:27:33.703Z,0.54
2022-08-02T07:32:40.625Z,0.69
2022-08-02T07:37:55.388Z,0.63
2022-08-02T07:42:57.889Z,0.64
2022-08-02T07:48:00.767Z,1.07
2022-08-02T07:53:07.766Z,0.74
2022-08-02T07:58:15.238Z,0.85
2022-08-02T08:03:22.200Z,1.11
2022-08-02T08:08:29.204Z,0.98
2022-08-02T08:13:36.291Z,0.81
2022-08-02T08:18:43.219Z,0.82
2022-08-02T08:23:50.155Z,1.08
2022-08-02T08:28:57.183Z,0.93
2022-08-02T08:34:04.165Z,1.08
2022-08-02T08:39:11.172Z,0.86
2022-08-02T08:44:18.102Z,0.90
2022-08-02T08:49:25.131Z,0.92
2022-08-02T08:54:32.015Z,0.92
2022-08-02T08:59:39.475Z,0.87
2022-08-02T09:04:52.951Z,0.89
2022-08-02T09:09:52.662Z,0.90
2022-08-02T09:14:59.634Z,0.81
2022-08-02T09:20:06.855Z,0.78
2022-08-02T09:25:13.847Z,0.76
2022-08-02T09:30:20.951Z,0.90
2022-08-02T09:35:27.890Z,0.78
2022-08-02T09:40:34.403Z,0.83
2022-08-02T09:45:41.428Z,0.85
2022-08-02T09:50:48.617Z,0.75
2022-08-02T09:55:55.549Z,0.72
2022-08-02T10:01:02.744Z,0.77
2022-08-02T10:06:09.660Z,0.88
2022-08-02T10:11:16.327Z,0.73
2022-08-02T10:16:23.556Z,0.92
2022-08-02T10:21:30.637Z,0.80
2022-08-02T10:26:37.613Z,0.75
2022-08-02T10:31:44.800Z,0.71
2022-08-02T10:36:51.754Z,0.82
2022-08-02T10:41:58.729Z,0.81
2022-08-02T10:47:05.877Z,0.86
2022-08-02T10:52:12.653Z,0.79
2022-08-02T10:57:18.838Z,0.60
2022-08-02T11:02:25.784Z,0.62
2022-08-02T11:07:32.869Z,0.63
2022-08-02T11:12:39.856Z,0.73
2022-08-02T11:17:46.925Z,0.78
2022-08-02T11:22:53.890Z,0.77
2022-08-02T11:28:01.014Z,0.81
2022-08-02T11:33:09.086Z,0.79
2022-08-02T11:38:16.176Z,0.82
2022-08-02T11:43:23.061Z,0.71
2022-08-02T11:48:30.000Z,0.79
2022-08-02T11:53:37.061Z,0.79
2022-08-02T11:58:44.042Z,0.80
2022-08-02T12:03:51.268Z,0.75
2022-08-02T12:08:58.145Z,0.98
2022-08-02T12:14:10.098Z,0.78
2022-08-02T12:19:07.036Z,0.99
2022-08-02T12:24:14.100Z,0.94
2022-08-02T12:29:57.675Z,1.22
2022-08-02T12:34:29.971Z,1.09
2022-08-02T12:39:34.243Z,1.18
2022-08-02T12:44:41.306Z,1.27
2022-08-02T12:49:48.314Z,1.36
2022-08-02T12:54:55.243Z,1.09
2022-08-02T13:00:02.204Z,1.07
2022-08-02T13:05:09.177Z,1.07
2022-08-02T13:10:16.302Z,1.28
2022-08-02T13:15:49.793Z,1.10
2022-08-02T13:20:30.071Z,1.27
2022-08-02T13:25:37.048Z,1.26
2022-08-02T13:30:44.174Z,1.25
2022-08-02T13:35:51.110Z,1.56
2022-08-02T13:41:04.381Z,1.62
2022-08-02T13:46:04.730Z,1.67
2022-08-02T13:51:11.859Z,1.72
2022-08-02T13:56:18.362Z,1.69
2022-08-02T14:01:25.480Z,1.57
2022-08-02T14:06:32.389Z,1.83
2022-08-02T14:11:39.625Z,1.99
2022-08-02T14:16:46.645Z,1.83
2022-08-02T14:21:53.634Z,1.77
2022-08-02T14:27:00.211Z,1.80
2022-08-02T14:32:07.216Z,2.18
2022-08-02T14:37:14.296Z,2.08
2022-08-02T14:42:20.779Z,2.60
2022-08-02T14:47:27.869Z,2.36
2022-08-02T14:52:34.850Z,2.40
2022-08-02T14:57:41.962Z,2.41
2022-08-02T15:02:48.908Z,3.01
2022-08-02T15:07:55.972Z,2.92
2022-08-02T15:13:02.952Z,2.73
2022-08-02T15:18:10.121Z,3.25
2022-08-02T15:23:17.104Z,3.00
2022-08-02T15:28:23.847Z,2.92
2022-08-02T15:33:30.814Z,3.05
2022-08-02T15:38:38.073Z,2.88
2022-08-02T15:44:00.976Z,3.63
2022-08-02T15:48:51.634Z,3.63
2022-08-02T15:53:58.640Z,4.32
2022-08-02T15:59:06.962Z,5.47
2022-08-02T16:04:13.954Z,6.36
2022-08-02T16:09:21.075Z,3.80
2022-08-02T16:14:28.037Z,7.03
2022-08-02T16:19:49.168Z,3.32
2022-08-02T16:24:41.614Z,4.29
2022-08-02T16:29:48.598Z,3.81
2022-08-02T16:35:07.602Z,3.42
2022-08-02T16:40:02.260Z,3.31
2022-08-02T16:45:09.185Z,3.82
2022-08-02T16:50:16.021Z,4.53
2022-08-02T16:55:22.413Z,3.89
2022-08-02T16:57:56.943Z,4.21
2022-08-02T17:03:13.386Z,3.31
2022-08-02T17:08:17.133Z,2.56
2022-08-02T17:13:16.174Z,2.86
2022-08-02T17:18:26.325Z,2.50
2022-08-02T17:23:47.077Z,2.66
2022-08-02T17:28:41.679Z,2.73
2022-08-02T17:33:43.369Z,2.60
2022-08-02T17:38:51.896Z,2.70
2022-08-02T17:43:56.982Z,2.73
2022-08-02T17:49:04.397Z,2.19
2022-08-02T17:54:11.459Z,2.11
2022-08-02T17:59:20.732Z,2.06
2022-08-02T18:04:27.758Z,2.13
2022-08-02T18:09:31.969Z,2.22
2022-08-02T18:14:46.076Z,2.57
2022-08-02T18:19:57.286Z,2.56
2022-08-02T18:24:52.135Z,2.31
2022-08-02T18:30:00.216Z,2.59
2022-08-02T18:35:05.611Z,2.68
2022-08-02T18:40:12.266Z,2.66
2022-08-02T18:45:19.785Z,2.74
2022-08-02T18:50:25.870Z,2.72
2022-08-02T18:55:59.171Z,2.54
2022-08-02T19:00:38.989Z,2.17
2022-08-02T19:05:52.114Z,2.61
2022-08-02T19:10:52.701Z,2.36
2022-08-02T19:15:59.698Z,2.32
2022-08-02T19:21:07.495Z,2.10
2022-08-02T19:26:13.572Z,2.23
2022-08-02T19:31:20.178Z,1.88
2022-08-02T19:36:27.126Z,1.80
2022-08-02T19:41:44.072Z,2.18
2022-08-02T19:46:41.505Z,1.93
2022-08-02T19:51:49.852Z,1.73
2022-08-02T19:56:53.936Z,1.67
2022-08-02T20:02:00.487Z,1.78
2022-08-02T20:07:07.447Z,1.69
2022-08-02T20:12:14.980Z,1.41
2022-08-02T20:17:21.199Z,1.52
2022-08-02T20:22:27.996Z,1.53
2022-08-02T20:27:35.202Z,1.51
2022-08-02T20:32:42.212Z,1.46
2022-08-02T20:38:01.009Z,1.26
2022-08-02T20:42:58.333Z,1.24
2022-08-02T20:48:05.586Z,1.11
2022-08-02T20:53:24.198Z,1.21
2022-08-02T20:58:18.842Z,0.89
2022-08-02T21:03:25.396Z,0.98
2022-08-02T21:08:32.110Z,1.08
2022-08-02T21:13:46.442Z,1.20
2022-08-02T21:18:45.540Z,1.29
2022-08-02T21:23:54.865Z,1.32
2022-08-02T21:29:01.001Z,1.39
2022-08-02T21:34:27.265Z,1.31
2022-08-02T21:39:12.561Z,1.72
2022-08-02T21:44:19.563Z,2.44
2022-08-02T21:49:40.582Z,2.04
2022-08-02T21:54:32.966Z,2.46
2022-08-02T21:59:39.738Z,2.33
2022-08-02T22:04:47.389Z,2.31
2022-08-02T22:09:52.901Z,2.29
2022-08-02T22:14:59.899Z,2.23
2022-08-02T22:20:06.906Z,2.07
2022-08-02T22:25:31.056Z,2.82
2022-08-02T22:30:20.582Z,3.04
2022-08-02T22:35:27.502Z,3.63
2022-08-02T22:40:34.125Z,4.75
2022-08-02T22:45:41.072Z,5.06
2022-08-02T22:50:48.155Z,5.42
2022-08-02T22:55:55.161Z,5.40
2022-08-02T23:01:02.290Z,6.37
2022-08-02T23:06:09.212Z,6.36
2022-08-02T23:11:16.325Z,7.32
2022-08-02T23:16:23.311Z,7.90
2022-08-02T23:22:01.116Z,7.42
2022-08-02T23:26:36.949Z,7.93
2022-08-02T23:31:44.159Z,8.27
2022-08-02T23:36:50.634Z,7.54
2022-08-02T23:41:57.693Z,8.58
2022-08-02T23:47:04.692Z,9.09
2022-08-02T23:52:11.867Z,9.76
2022-08-02T23:57:20.806Z,9.95
